Time;durP1;ratioP1;P1;durP2;ratioP2;P2;SDS_P1;SDS_P2;PMS_P1;PMS_P2;Temp;Humidity;BMP_temperature;BMP_pressure;BME280_temperature;BME280_humidity;BME280_pressure;Samples;Min_cycle;Max_cycle;Signal;HPM_P1;HPM_P2
2021/05/30 00:00:31;;;;;;;0.40;0.40;;;17.50;78.70;;;;;;4158288;28;20081;-52
2021/05/30 00:02:54;;;;;;;0.00;0.00;;;17.50;78.70;;;;;;4161328;28;20080;-46
2021/05/30 00:05:15;;;;;;;0.25;0.25;;;17.50;78.70;;;;;;4167309;28;20549;-48
2021/05/30 00:07:37;;;;;;;0.00;0.00;;;17.50;78.80;;;;;;4177649;28;20037;-48
2021/05/30 00:09:58;;;;;;;0.08;0.08;;;17.50;78.80;;;;;;4165786;28;20049;-49
2021/05/30 00:12:20;;;;;;;0.05;0.05;;;17.50;78.80;;;;;;4161372;28;20179;-52
2021/05/30 00:14:42;;;;;;;1.00;0.40;;;17.50;78.90;;;;;;4160987;28;20156;-50
2021/05/30 00:17:05;;;;;;;0.00;0.00;;;17.50;78.90;;;;;;4161046;28;20052;-49
2021/05/30 00:19:27;;;;;;;0.10;0.10;;;17.40;78.90;;;;;;4167217;28;20466;-49
2021/05/30 00:21:50;;;;;;;0.15;0.15;;;17.50;79.00;;;;;;4161161;28;20496;-51
2021/05/30 00:24:12;;;;;;;0.08;0.08;;;17.50;79.00;;;;;;4161039;28;20123;-47
2021/05/30 00:26:34;;;;;;;0.20;0.15;;;17.50;79.00;;;;;;4160934;28;20131;-48
2021/05/30 00:28:55;;;;;;;1.48;0.32;;;17.40;79.00;;;;;;4160939;28;20492;-46
2021/05/30 00:31:17;;;;;;;0.17;0.17;;;17.40;79.10;;;;;;4166284;28;20430;-51
2021/05/30 00:33:40;;;;;;;0.00;0.00;;;17.40;79.00;;;;;;4177337;28;20060;-52
2021/05/30 00:36:02;;;;;;;0.10;0.10;;;17.40;79.00;;;;;;4177256;28;20056;-49
2021/05/30 00:38:23;;;;;;;0.98;0.93;;;17.40;79.00;;;;;;4177286;28;20523;-49
2021/05/30 00:40:45;;;;;;;0.10;0.10;;;17.40;79.10;;;;;;4169803;28;20067;-50
2021/05/30 00:43:06;;;;;;;0.00;0.00;;;17.50;79.30;;;;;;4177249;28;20057;-50
2021/05/30 00:45:28;;;;;;;0.00;0.00;;;17.40;79.20;;;;;;4177216;28;20118;-50
2021/05/30 00:47:50;;;;;;;0.20;0.20;;;17.40;79.20;;;;;;4177214;28;20106;-52
2021/05/30 00:50:14;;;;;;;0.08;0.08;;;17.40;79.20;;;;;;4163893;28;20052;-48
2021/05/30 00:52:36;;;;;;;0.10;0.10;;;17.40;79.30;;;;;;4160781;28;20050;-49
2021/05/30 00:54:58;;;;;;;0.85;0.85;;;17.40;79.30;;;;;;4160575;28;20447;-47
2021/05/30 00:57:20;;;;;;;1.00;0.57;;;17.40;79.40;;;;;;4163257;28;20056;-48
2021/05/30 00:59:42;;;;;;;0.13;0.13;;;17.40;79.40;;;;;;4177002;28;20052;-47
2021/05/30 01:02:04;;;;;;;0.20;0.20;;;17.40;79.50;;;;;;4176787;28;20045;-47
2021/05/30 01:04:26;;;;;;;0.28;0.28;;;17.40;79.50;;;;;;4175947;28;20045;-46
2021/05/30 01:06:53;;;;;;;0.88;0.85;;;17.40;79.60;;;;;;4160300;28;20532;-48
2021/05/30 01:09:15;;;;;;;0.00;0.00;;;17.40;79.60;;;;;;4160007;28;20061;-49
2021/05/30 01:11:37;;;;;;;0.10;0.10;;;17.40;79.60;;;;;;4175322;28;20041;-52
2021/05/30 01:14:00;;;;;;;0.00;0.00;;;17.40;80.60;;;;;;4159650;28;20447;-50
2021/05/30 01:16:22;;;;;;;0.13;0.13;;;17.40;79.70;;;;;;4176303;28;20518;-52
2021/05/30 01:18:45;;;;;;;2.83;0.75;;;17.40;79.80;;;;;;4176652;28;20534;-50
2021/05/30 01:21:08;;;;;;;0.17;0.17;;;17.40;79.80;;;;;;4176563;28;20510;-49
2021/05/30 01:23:31;;;;;;;0.00;0.00;;;17.40;79.80;;;;;;4175628;28;20041;-50
2021/05/30 01:25:53;;;;;;;0.03;0.03;;;17.40;80.60;;;;;;4160218;28;20049;-47
2021/05/30 01:28:16;;;;;;;0.10;0.10;;;17.40;79.80;;;;;;4160081;28;20698;-49
2021/05/30 01:30:38;;;;;;;0.73;0.73;;;17.40;79.80;;;;;;4159993;28;20129;-47
2021/05/30 01:33:00;;;;;;;1.98;1.58;;;17.40;79.90;;;;;;4158618;28;20041;-50
2021/05/30 01:35:22;;;;;;;0.00;0.00;;;17.40;79.90;;;;;;4164637;28;20495;-48
2021/05/30 01:37:44;;;;;;;0.22;0.22;;;17.40;79.90;;;;;;4176181;28;20071;-51
2021/05/30 01:40:08;;;;;;;0.00;0.00;;;17.40;80.00;;;;;;4161648;28;20128;-51
2021/05/30 01:42:29;;;;;;;0.20;0.20;;;17.40;80.00;;;;;;4160960;28;20088;-46
2021/05/30 01:44:51;;;;;;;0.20;0.20;;;17.40;80.10;;;;;;4159952;28;20096;-50
2021/05/30 01:47:13;;;;;;;0.00;0.00;;;17.30;80.00;;;;;;4159975;28;20095;-46
2021/05/30 01:49:35;;;;;;;0.00;0.00;;;17.30;80.10;;;;;;4159661;28;20049;-49
2021/05/30 01:51:57;;;;;;;0.00;0.00;;;17.30;80.10;;;;;;4160630;28;20057;-51
2021/05/30 01:54:20;;;;;;;0.03;0.03;;;17.40;80.20;;;;;;4175658;28;20045;-51
2021/05/30 01:56:58;;;;;;;0.10;0.10;;;17.30;80.20;;;;;;4175759;28;20102;-51
2021/05/30 01:59:20;;;;;;;1.17;0.80;;;17.30;80.20;;;;;;4175631;28;20041;-50
2021/05/30 02:01:42;;;;;;;1.45;1.45;;;17.30;80.20;;;;;;4175984;28;20056;-50
2021/05/30 02:04:06;;;;;;;0.10;0.10;;;17.30;80.20;;;;;;4172049;28;20514;-47
2021/05/30 02:06:29;;;;;;;0.10;0.10;;;17.30;80.30;;;;;;4162943;28;20061;-49
2021/05/30 02:08:51;;;;;;;0.00;0.00;;;17.30;80.40;;;;;;4163621;28;20110;-52
2021/05/30 02:11:13;;;;;;;0.20;0.20;;;17.30;80.30;;;;;;4175630;28;20056;-53
2021/05/30 02:13:36;;;;;;;0.55;0.28;;;17.30;80.30;;;;;;4175585;28;20048;-51
2021/05/30 02:15:57;;;;;;;1.45;0.45;;;17.30;80.40;;;;;;4174520;28;20056;-50
2021/05/30 02:18:19;;;;;;;0.00;0.00;;;17.30;80.40;;;;;;4159201;28;20045;-50
2021/05/30 02:20:42;;;;;;;0.30;0.30;;;17.30;80.50;;;;;;4159192;28;20073;-52
2021/05/30 02:23:04;;;;;;;0.95;0.90;;;17.30;80.50;;;;;;4159270;28;20053;-51
2021/05/30 02:25:28;;;;;;;0.55;0.55;;;17.30;80.60;;;;;;4158138;28;20758;-52
2021/05/30 02:27:51;;;;;;;0.00;0.00;;;17.30;80.60;;;;;;4159236;28;20736;-51
2021/05/30 02:30:14;;;;;;;0.00;0.00;;;17.30;80.60;;;;;;4159140;28;20160;-51
2021/05/30 02:32:36;;;;;;;0.03;0.03;;;17.30;80.60;;;;;;4158963;28;20519;-47
2021/05/30 02:34:58;;;;;;;1.08;1.08;;;17.30;80.60;;;;;;4158908;28;20087;-46
2021/05/30 02:37:20;;;;;;;0.10;0.10;;;17.30;80.70;;;;;;4159147;28;20049;-47
2021/05/30 02:39:42;;;;;;;0.43;0.43;;;17.30;80.60;;;;;;4171181;28;20068;-50
2021/05/30 02:42:05;;;;;;;0.10;0.10;;;17.30;80.70;;;;;;4175480;28;20041;-50
2021/05/30 02:44:26;;;;;;;0.10;0.10;;;17.30;80.80;;;;;;4165534;28;20312;-49
2021/05/30 02:46:49;;;;;;;0.10;0.10;;;17.30;80.90;;;;;;4159017;28;20057;-49
2021/05/30 02:49:11;;;;;;;0.10;0.10;;;17.30;81.10;;;;;;4166722;28;20563;-50
2021/05/30 02:51:33;;;;;;;0.30;0.30;;;17.30;81.10;;;;;;4175121;28;20072;-49
2021/05/30 02:53:54;;;;;;;5.28;1.75;;;17.30;81.20;;;;;;4174914;28;20070;-50
2021/05/30 02:56:16;;;;;;;0.28;0.28;;;17.30;81.40;;;;;;4175019;28;20529;-47
2021/05/30 02:58:38;;;;;;;1.45;0.68;;;17.30;81.40;;;;;;4175131;28;20463;-51
2021/05/30 03:01:00;;;;;;;0.10;0.10;;;17.30;81.50;;;;;;4171112;28;20049;-49
2021/05/30 03:03:22;;;;;;;0.00;0.00;;;17.30;81.60;;;;;;4162907;28;20411;-49
2021/05/30 03:05:44;;;;;;;0.10;0.10;;;17.20;81.60;;;;;;4174957;28;20045;-46
2021/05/30 03:08:06;;;;;;;0.03;0.03;;;17.20;81.60;;;;;;4174371;28;20071;-51
2021/05/30 03:10:27;;;;;;;0.03;0.03;;;17.20;82.00;;;;;;4158461;28;20050;-49
2021/05/30 03:12:48;;;;;;;;;;;17.20;81.70;;;;;;4169533;28;20102;-49
2021/05/30 03:15:11;;;;;;;0.13;0.13;;;17.20;81.60;;;;;;4173377;28;19927;-49
2021/05/30 03:17:33;;;;;;;2.85;0.50;;;17.20;81.70;;;;;;4174647;28;20049;-50
2021/05/30 03:19:55;;;;;;;0.13;0.13;;;17.20;81.60;;;;;;4158049;28;20103;-49
2021/05/30 03:22:20;;;;;;;0.28;0.28;;;17.30;81.70;;;;;;4146091;28;20056;-46
2021/05/30 03:24:42;;;;;;;0.00;0.00;;;17.20;81.60;;;;;;4156256;28;20088;-48
2021/05/30 03:27:04;;;;;;;0.10;0.10;;;17.20;81.60;;;;;;4158274;28;20045;-51
2021/05/30 03:29:25;;;;;;;0.17;0.17;;;17.20;81.60;;;;;;4173962;28;20069;-49
2021/05/30 03:31:47;;;;;;;0.00;0.00;;;17.20;81.70;;;;;;4174535;28;20040;-48
2021/05/30 03:34:08;;;;;;;0.10;0.10;;;17.20;81.70;;;;;;4174813;28;20057;-49
2021/05/30 03:36:32;;;;;;;0.10;0.10;;;17.20;81.80;;;;;;4174297;28;20048;-49
2021/05/30 03:39:00;;;;;;;0.00;0.00;;;17.20;81.70;;;;;;4167086;28;20056;-47
2021/05/30 03:41:24;;;;;;;0.55;0.55;;;17.20;81.80;;;;;;4158114;28;20084;-50
2021/05/30 03:43:46;;;;;;;1.05;1.05;;;17.20;81.90;;;;;;4170872;28;20049;-50
2021/05/30 03:46:08;;;;;;;1.50;0.50;;;17.20;81.80;;;;;;4173377;28;20810;-50
2021/05/30 03:48:30;;;;;;;0.10;0.10;;;17.20;81.80;;;;;;4168736;28;20050;-48
2021/05/30 03:50:52;;;;;;;0.43;0.43;;;17.20;81.80;;;;;;4157843;28;20061;-52
2021/05/30 03:53:14;;;;;;;0.52;0.52;;;17.20;81.90;;;;;;4156579;28;20041;-49
2021/05/30 03:55:36;;;;;;;0.00;0.00;;;17.20;81.90;;;;;;4156243;28;20061;-49
2021/05/30 03:57:58;;;;;;;0.13;0.13;;;17.20;81.90;;;;;;4142142;28;20096;-47
2021/05/30 04:00:21;;;;;;;0.22;0.22;;;17.20;81.90;;;;;;4174299;28;20091;-52
2021/05/30 04:02:43;;;;;;;0.90;0.90;;;17.20;82.00;;;;;;4173790;28;20431;-47
2021/05/30 04:05:05;;;;;;;0.10;0.10;;;17.10;81.90;;;;;;4174473;28;20061;-50
2021/05/30 04:07:27;;;;;;;0.10;0.10;;;17.20;81.90;;;;;;4174331;28;20502;-50
2021/05/30 04:09:50;;;;;;;0.00;0.00;;;17.10;82.80;;;;;;4174466;28;20121;-50
2021/05/30 04:12:11;;;;;;;0.00;0.00;;;17.10;81.80;;;;;;4174462;28;20048;-52
2021/05/30 04:14:33;;;;;;;0.00;0.00;;;17.10;81.90;;;;;;4174556;28;20056;-51
2021/05/30 04:16:54;;;;;;;0.05;0.05;;;17.10;82.00;;;;;;4174137;28;20049;-48
2021/05/30 04:19:16;;;;;;;3.03;0.45;;;17.10;82.00;;;;;;4160463;28;20072;-50
2021/05/30 04:21:38;;;;;;;0.10;0.10;;;17.10;82.00;;;;;;4173897;28;20052;-50
2021/05/30 04:23:59;;;;;;;0.22;0.22;;;17.10;82.00;;;;;;4169349;28;20090;-52
2021/05/30 04:26:22;;;;;;;0.10;0.10;;;17.10;82.00;;;;;;4174034;28;20045;-51
2021/05/30 04:28:44;;;;;;;0.00;0.00;;;17.10;82.00;;;;;;4173207;28;20126;-51
2021/05/30 04:31:06;;;;;;;2.30;1.20;;;17.10;82.00;;;;;;4174063;28;20059;-50
2021/05/30 04:33:28;;;;;;;0.15;0.15;;;17.10;82.00;;;;;;4174035;28;20072;-49
2021/05/30 04:35:50;;;;;;;0.00;0.00;;;17.10;82.10;;;;;;4174114;28;20086;-50
2021/05/30 04:38:12;;;;;;;0.03;0.03;;;17.10;82.10;;;;;;4165690;28;20137;-53
2021/05/30 04:40:34;;;;;;;0.10;0.10;;;17.10;82.10;;;;;;4158199;28;20050;-53
2021/05/30 04:42:57;;;;;;;1.88;0.63;;;17.10;82.10;;;;;;4169615;28;20132;-53
2021/05/30 04:45:20;;;;;;;2.35;0.90;;;17.10;82.10;;;;;;4174111;28;20072;-53
2021/05/30 04:47:42;;;;;;;0.65;0.65;;;17.10;82.10;;;;;;4168667;28;20060;-48
2021/05/30 04:50:05;;;;;;;0.40;0.40;;;17.10;82.10;;;;;;4159920;28;20049;-48
2021/05/30 04:52:31;;;;;;;0.20;0.20;;;17.10;82.10;;;;;;4160891;28;20580;-50
2021/05/30 04:54:53;;;;;;;0.35;0.35;;;17.10;82.10;;;;;;4160894;28;20549;-49
2021/05/30 04:57:15;;;;;;;0.35;0.10;;;17.10;82.00;;;;;;4160203;28;20082;-47
2021/05/30 04:59:37;;;;;;;2.55;1.55;;;17.10;82.00;;;;;;4160476;28;20491;-50
2021/05/30 05:01:59;;;;;;;0.20;0.20;;;17.10;82.00;;;;;;4162813;28;20052;-50
2021/05/30 05:04:20;;;;;;;0.35;0.35;;;17.10;82.10;;;;;;4160482;28;20128;-49
2021/05/30 05:06:42;;;;;;;0.40;0.40;;;17.10;82.10;;;;;;4160362;28;20103;-49
2021/05/30 05:09:03;;;;;;;0.63;0.63;;;17.10;82.10;;;;;;4174269;28;20045;-52
2021/05/30 05:11:25;;;;;;;0.03;0.03;;;17.10;82.10;;;;;;4176979;28;20488;-49
2021/05/30 05:13:47;;;;;;;3.03;0.60;;;17.10;82.00;;;;;;4176619;28;20052;-48
2021/05/30 05:16:09;;;;;;;1.25;1.25;;;17.10;81.90;;;;;;4176710;28;20048;-50
2021/05/30 05:18:32;;;;;;;0.20;0.20;;;17.10;82.80;;;;;;4160110;28;20550;-51
2021/05/30 05:20:54;;;;;;;0.10;0.10;;;17.10;81.90;;;;;;4160440;28;20053;-48
2021/05/30 05:23:17;;;;;;;0.57;0.57;;;17.10;81.60;;;;;;4160013;28;20060;-48
2021/05/30 05:25:39;;;;;;;0.10;0.10;;;17.20;82.40;;;;;;4160074;28;20128;-48
2021/05/30 05:28:01;;;;;;;0.30;0.30;;;17.20;82.10;;;;;;4163036;28;20114;-50
2021/05/30 05:30:24;;;;;;;0.60;0.30;;;17.20;81.90;;;;;;4174211;28;20041;-48
2021/05/30 05:32:47;;;;;;;0.00;0.00;;;17.30;81.60;;;;;;4176481;28;20076;-49
2021/05/30 05:35:09;;;;;;;0.00;0.00;;;17.20;81.60;;;;;;4166780;28;20450;-47
2021/05/30 05:37:31;;;;;;;0.10;0.10;;;17.20;81.60;;;;;;4171560;28;20431;-48
2021/05/30 05:39:53;;;;;;;0.10;0.10;;;17.30;81.70;;;;;;4176297;28;20510;-49
2021/05/30 05:42:14;;;;;;;0.57;0.47;;;17.30;81.40;;;;;;4175562;28;20048;-48
2021/05/30 05:44:36;;;;;;;0.45;0.45;;;17.30;82.20;;;;;;4162096;28;20046;-53
2021/05/30 05:46:58;;;;;;;0.00;0.00;;;17.30;81.20;;;;;;4175919;28;20053;-49
2021/05/30 05:49:20;;;;;;;0.10;0.10;;;17.30;80.90;;;;;;4176154;28;20095;-46
2021/05/30 05:51:46;;;;;;;0.15;0.15;;;17.30;80.80;;;;;;4175692;28;20052;-52
2021/05/30 05:54:13;;;;;;;0.20;0.20;;;17.30;80.70;;;;;;4175928;28;20451;-53
2021/05/30 05:56:34;;;;;;;0.10;0.10;;;17.30;80.50;;;;;;4159729;28;20057;-48
2021/05/30 05:58:56;;;;;;;0.00;0.00;;;17.30;80.60;;;;;;4160780;28;20049;-50
2021/05/30 06:01:17;;;;;;;0.00;0.00;;;17.40;80.80;;;;;;4176088;28;20048;-48
2021/05/30 06:03:39;;;;;;;0.00;0.00;;;17.40;80.70;;;;;;4175982;28;20055;-47
2021/05/30 06:06:03;;;;;;;0.10;0.10;;;17.40;80.50;;;;;;4175838;28;20079;-50
2021/05/30 06:08:24;;;;;;;0.03;0.03;;;17.50;80.10;;;;;;4175092;28;20521;-51
2021/05/30 06:10:47;;;;;;;0.20;0.20;;;17.40;79.80;;;;;;4175240;28;20403;-50
2021/05/30 06:13:10;;;;;;;0.10;0.10;;;17.40;79.80;;;;;;4173438;28;20053;-51
2021/05/30 06:15:32;;;;;;;0.25;0.25;;;17.40;79.80;;;;;;4175727;28;20415;-49
2021/05/30 06:17:56;;;;;;;0.32;0.32;;;17.40;79.60;;;;;;4175562;28;20055;-50
2021/05/30 06:20:18;;;;;;;0.15;0.15;;;17.40;80.20;;;;;;4163084;28;20077;-50
2021/05/30 06:22:40;;;;;;;0.38;0.38;;;17.50;79.30;;;;;;4175723;28;20466;-52
2021/05/30 06:25:02;;;;;;;0.88;0.88;;;17.40;78.80;;;;;;4169449;28;20059;-46
2021/05/30 06:27:24;;;;;;;4.20;1.98;;;17.50;78.80;;;;;;4159255;28;20072;-48
2021/05/30 06:29:46;;;;;;;0.03;0.03;;;17.50;78.70;;;;;;4159244;28;20045;-51
2021/05/30 06:32:08;;;;;;;0.00;0.00;;;17.50;78.50;;;;;;4158794;28;20132;-51
2021/05/30 06:34:29;;;;;;;0.40;0.40;;;17.50;78.40;;;;;;4159244;28;20065;-52
2021/05/30 06:36:52;;;;;;;6.93;1.50;;;17.60;79.10;;;;;;4161988;28;20049;-52
2021/05/30 06:39:15;;;;;;;1.38;1.27;;;17.60;77.90;;;;;;4175074;28;20044;-50
2021/05/30 06:41:37;;;;;;;1.02;0.98;;;17.70;77.50;;;;;;4175252;28;20051;-51
2021/05/30 06:43:58;;;;;;;0.00;0.00;;;17.70;77.20;;;;;;4175202;28;20458;-47
2021/05/30 06:46:20;;;;;;;0.52;0.52;;;17.80;76.90;;;;;;4175435;28;20081;-47
2021/05/30 06:48:42;;;;;;;0.50;0.50;;;17.80;76.50;;;;;;4175189;28;20479;-52
2021/05/30 06:51:13;;;;;;;0.20;0.20;;;17.80;76.30;;;;;;4175275;28;20053;-49
2021/05/30 06:53:35;;;;;;;0.00;0.00;;;17.80;76.00;;;;;;4158200;28;20056;-49
2021/05/30 06:55:58;;;;;;;0.10;0.10;;;17.80;75.60;;;;;;4159422;28;20049;-51
2021/05/30 06:58:20;;;;;;;0.00;0.00;;;17.90;75.40;;;;;;4158419;28;20601;-51
2021/05/30 07:00:41;;;;;;;3.40;1.35;;;17.90;75.10;;;;;;4158576;28;20049;-49
2021/05/30 07:03:03;;;;;;;0.17;0.17;;;18.00;75.80;;;;;;4168695;28;20041;-54
2021/05/30 07:05:25;;;;;;;0.35;0.35;;;18.10;75.20;;;;;;4174709;28;20127;-49
2021/05/30 07:07:47;;;;;;;0.63;0.57;;;18.20;74.90;;;;;;4158553;28;20128;-54
2021/05/30 07:10:10;;;;;;;5.15;2.92;;;18.20;74.40;;;;;;4161976;28;20049;-48
2021/05/30 07:12:32;;;;;;;0.35;0.35;;;18.30;74.00;;;;;;4173982;28;20045;-53
2021/05/30 07:14:54;;;;;;;0.10;0.10;;;18.30;73.90;;;;;;4143425;28;20157;-54
2021/05/30 07:17:16;;;;;;;3.83;1.42;;;18.40;73.50;;;;;;4167270;28;20256;-52
2021/05/30 07:19:38;;;;;;;1.17;1.17;;;18.50;73.50;;;;;;4158088;28;20523;-54
2021/05/30 07:22:00;;;;;;;2.00;1.10;;;18.50;72.90;;;;;;4158603;28;20095;-49
2021/05/30 07:24:21;;;;;;;0.05;0.05;;;18.50;72.90;;;;;;4159733;28;20407;-52
2021/05/30 07:26:43;;;;;;;0.08;0.08;;;18.50;72.80;;;;;;4159097;28;20048;-50
2021/05/30 07:29:06;;;;;;;0.45;0.45;;;18.60;72.70;;;;;;4158394;28;20500;-52
2021/05/30 07:31:27;;;;;;;0.52;0.52;;;18.60;72.60;;;;;;4158093;28;20053;-48
2021/05/30 07:33:48;;;;;;;0.95;0.93;;;18.60;72.40;;;;;;4173707;28;20107;-51
2021/05/30 07:36:10;;;;;;;0.17;0.17;;;18.60;72.40;;;;;;4163664;28;20049;-52
2021/05/30 07:38:32;;;;;;;2.28;1.48;;;18.60;72.30;;;;;;4174508;28;20052;-50
2021/05/30 07:40:54;;;;;;;0.20;0.20;;;18.60;72.20;;;;;;4168804;28;20042;-53
2021/05/30 07:43:16;;;;;;;0.32;0.32;;;18.60;72.00;;;;;;4164697;28;20052;-56
2021/05/30 07:45:39;;;;;;;0.15;0.15;;;18.70;72.00;;;;;;4165562;28;20080;-53
2021/05/30 07:48:01;;;;;;;10.43;2.60;;;18.60;72.00;;;;;;4157878;28;20812;-52
2021/05/30 07:50:24;;;;;;;0.03;0.03;;;18.60;72.10;;;;;;4171544;28;20071;-54
2021/05/30 07:52:46;;;;;;;0.10;0.10;;;18.60;72.20;;;;;;4168019;28;20069;-51
2021/05/30 07:55:09;;;;;;;0.50;0.50;;;18.70;72.20;;;;;;4173014;28;20057;-52
2021/05/30 07:57:31;;;;;;;0.35;0.32;;;18.70;72.20;;;;;;4157948;28;20061;-52
2021/05/30 07:59:52;;;;;;;0.40;0.40;;;18.60;72.10;;;;;;4156592;28;20180;-56
2021/05/30 08:02:15;;;;;;;0.20;0.20;;;18.60;72.20;;;;;;4158080;28;20053;-55
2021/05/30 08:04:40;;;;;;;0.70;0.70;;;18.70;72.30;;;;;;4154951;28;20049;-54
2021/05/30 08:07:02;;;;;;;0.47;0.47;;;18.70;72.20;;;;;;4157930;28;20559;-55
2021/05/30 08:09:23;;;;;;;0.73;0.68;;;18.70;71.80;;;;;;4170813;28;20041;-59
2021/05/30 08:11:45;;;;;;;0.10;0.10;;;18.70;71.40;;;;;;4172707;28;20514;-52
2021/05/30 08:14:07;;;;;;;0.00;0.00;;;18.70;71.60;;;;;;4174561;28;20125;-54
2021/05/30 08:16:37;;;;;;;0.55;0.55;;;18.70;71.80;;;;;;4172141;28;20900;-54
2021/05/30 08:18:59;;;;;;;0.40;0.40;;;18.70;72.80;;;;;;4172046;28;20060;-53
2021/05/30 08:21:22;;;;;;;0.40;0.40;;;18.70;71.90;;;;;;4173281;28;20072;-49
2021/05/30 08:23:44;;;;;;;0.10;0.10;;;18.70;71.80;;;;;;4159212;28;20060;-48
2021/05/30 08:26:06;;;;;;;0.15;0.15;;;18.70;71.70;;;;;;4160361;28;20053;-52
2021/05/30 08:28:28;;;;;;;0.55;0.55;;;18.70;72.50;;;;;;4165798;28;20044;-52
2021/05/30 08:30:50;;;;;;;0.63;0.63;;;18.70;71.70;;;;;;4177364;28;20116;-51
2021/05/30 08:33:12;;;;;;;0.60;0.60;;;18.70;71.80;;;;;;4176649;28;20059;-51
2021/05/30 08:35:35;;;;;;;0.57;0.57;;;18.70;71.80;;;;;;4170780;28;20057;-54
2021/05/30 08:38:05;;;;;;;0.17;0.17;;;18.70;71.80;;;;;;4174336;28;20137;-52
2021/05/30 08:40:38;;;;;;;0.28;0.28;;;18.70;71.80;;;;;;4172007;28;20541;-52
2021/05/30 08:42:59;;;;;;;1.55;1.45;;;18.70;71.90;;;;;;4160775;28;20504;-54
2021/05/30 08:45:22;;;;;;;0.55;0.55;;;18.80;72.00;;;;;;4162229;28;20045;-52
2021/05/30 08:47:44;;;;;;;0.50;0.50;;;18.70;71.90;;;;;;4176852;28;20549;-52
2021/05/30 08:50:06;;;;;;;0.10;0.10;;;18.80;72.10;;;;;;4176807;28;20064;-53
2021/05/30 08:52:33;;;;;;;0.65;0.65;;;18.80;72.10;;;;;;4176981;28;20550;-52
2021/05/30 08:54:55;;;;;;;0.90;0.90;;;18.80;72.10;;;;;;4174209;28;20067;-49
2021/05/30 08:57:17;;;;;;;1.17;1.17;;;18.80;72.10;;;;;;4157476;28;20072;-51
2021/05/30 08:59:48;;;;;;;0.60;0.60;;;18.80;71.90;;;;;;4158972;28;20061;-51
2021/05/30 09:02:11;;;;;;;1.02;1.02;;;18.80;71.90;;;;;;4159804;28;20057;-52
2021/05/30 09:04:35;;;;;;;39.55;2.38;;;18.80;71.90;;;;;;4177385;28;20080;-53
2021/05/30 09:06:56;;;;;;;0.00;0.00;;;18.90;71.90;;;;;;4176975;28;20479;-53
2021/05/30 09:09:19;;;;;;;0.25;0.20;;;18.90;71.90;;;;;;4175493;28;20064;-52
2021/05/30 09:11:45;;;;;;;0.52;0.52;;;18.90;71.70;;;;;;4174018;28;20068;-52
2021/05/30 09:14:12;;;;;;;0.32;0.32;;;18.90;71.70;;;;;;4171455;28;20496;-51
2021/05/30 09:16:54;;;;;;;0.50;0.50;;;18.90;71.60;;;;;;4171910;28;20048;-51
2021/05/30 09:19:43;;;;;;;9.15;3.35;;;19.00;71.60;;;;;;4176324;28;20548;-51
2021/05/30 09:22:24;;;;;;;2.47;0.65;;;19.00;71.70;;;;;;4176600;28;20073;-52
2021/05/30 09:25:07;;;;;;;0.77;0.77;;;19.00;71.50;;;;;;4172934;28;20434;-52
2021/05/30 09:27:29;;;;;;;2.20;0.68;;;19.10;71.50;;;;;;4176339;28;20049;-52
2021/05/30 09:30:13;;;;;;;0.00;0.00;;;19.10;71.40;;;;;;4176232;28;20118;-51
2021/05/30 09:33:10;;;;;;;0.10;0.10;;;19.10;71.20;;;;;;4176005;28;20552;-53
2021/05/30 09:35:57;;;;;;;0.10;0.10;;;19.10;71.20;;;;;;4176025;28;20048;-55
2021/05/30 09:38:21;;;;;;;0.32;0.32;;;19.10;71.10;;;;;;4161112;28;20056;-55
2021/05/30 09:40:46;;;;;;;2.40;0.73;;;19.10;70.80;;;;;;4167998;28;20044;-57
2021/05/30 09:43:10;;;;;;;0.73;0.73;;;19.10;70.90;;;;;;4174774;28;20136;-51
2021/05/30 09:45:32;;;;;;;0.20;0.20;;;19.20;71.00;;;;;;4176130;28;20048;-53
2021/05/30 09:47:53;;;;;;;2.45;1.08;;;19.20;70.90;;;;;;4175873;28;20048;-50
2021/05/30 09:50:18;;;;;;;0.03;0.03;;;19.20;70.80;;;;;;4172461;28;20049;-50
2021/05/30 09:52:42;;;;;;;1.45;0.65;;;19.20;70.70;;;;;;4163964;28;20073;-51
2021/05/30 09:55:15;;;;;;;4.28;1.35;;;19.20;70.70;;;;;;4169480;28;20053;-49
2021/05/30 09:57:38;;;;;;;0.20;0.20;;;19.30;70.70;;;;;;4158979;28;20060;-53
2021/05/30 10:00:00;;;;;;;0.20;0.20;;;19.20;70.50;;;;;;4161551;28;20045;-51
2021/05/30 10:02:21;;;;;;;0.52;0.52;;;19.30;70.50;;;;;;4176107;28;20064;-49
2021/05/30 10:04:43;;;;;;;0.55;0.55;;;19.30;70.50;;;;;;4175963;28;20533;-51
2021/05/30 10:07:06;;;;;;;0.00;0.00;;;19.30;70.50;;;;;;4175988;28;20053;-51
2021/05/30 10:09:30;;;;;;;0.05;0.05;;;19.40;70.60;;;;;;4175900;28;20413;-52
2021/05/30 10:11:51;;;;;;;0.13;0.13;;;19.40;70.50;;;;;;4159310;28;20049;-54
2021/05/30 10:14:14;;;;;;;0.28;0.28;;;19.40;70.40;;;;;;4158912;28;20122;-51
2021/05/30 10:16:37;;;;;;;0.80;0.80;;;19.40;70.40;;;;;;4159182;28;20049;-52
2021/05/30 10:19:04;;;;;;;0.70;0.70;;;19.40;70.40;;;;;;4165251;28;20052;-54
2021/05/30 10:21:25;;;;;;;0.00;0.00;;;19.40;70.40;;;;;;4170762;28;20131;-48
2021/05/30 10:23:51;;;;;;;0.20;0.20;;;19.40;70.40;;;;;;4175622;28;20076;-53
2021/05/30 10:26:15;;;;;;;0.57;0.57;;;19.40;71.60;;;;;;4159938;28;20107;-51
2021/05/30 10:28:46;;;;;;;0.10;0.10;;;19.40;71.30;;;;;;4158819;28;20049;-54
2021/05/30 10:31:20;;;;;;;0.00;0.00;;;19.50;71.40;;;;;;4160468;28;20058;-53
2021/05/30 10:33:41;;;;;;;1.85;0.85;;;19.50;71.60;;;;;;4158842;28;20053;-52
2021/05/30 10:36:12;;;;;;;0.30;0.30;;;19.50;71.70;;;;;;4159095;28;20063;-52
2021/05/30 10:38:38;;;;;;;0.00;0.00;;;19.50;71.60;;;;;;4158768;28;20049;-53
2021/05/30 10:41:13;;;;;;;0.50;0.45;;;19.50;71.50;;;;;;4167582;28;20056;-50
2021/05/30 10:43:35;;;;;;;1.35;0.95;;;19.60;71.40;;;;;;4174730;28;20057;-53
2021/05/30 10:46:04;;;;;;;4.30;0.98;;;19.60;71.30;;;;;;4174379;28;20110;-54
2021/05/30 10:48:27;;;;;;;0.00;0.00;;;19.60;71.20;;;;;;4174950;28;20803;-48
2021/05/30 10:51:02;;;;;;;0.88;0.75;;;19.60;71.00;;;;;;4161380;28;20757;-53
2021/05/30 10:53:31;;;;;;;0.00;0.00;;;19.60;71.10;;;;;;4158361;28;20115;-54
2021/05/30 10:55:52;;;;;;;0.10;0.10;;;19.60;71.00;;;;;;4158478;28;20049;-51
2021/05/30 10:58:16;;;;;;;;;;;19.60;70.90;;;;;;4158738;28;20053;-54
2021/05/30 11:00:37;;;;;;;0.43;0.43;;;19.60;70.80;;;;;;4163939;28;19928;-52
2021/05/30 11:03:07;;;;;;;2.72;0.93;;;19.60;70.80;;;;;;4165591;28;20488;-51
2021/05/30 11:05:49;;;;;;;0.00;0.00;;;19.60;70.80;;;;;;4170018;28;20091;-52
2021/05/30 11:08:49;;;;;;;0.20;0.20;;;19.70;70.90;;;;;;4173626;28;20212;-55
2021/05/30 11:11:18;;;;;;;0.10;0.10;;;19.70;70.70;;;;;;4173968;28;20063;-54
2021/05/30 11:13:48;;;;;;;0.20;0.20;;;19.70;70.60;;;;;;4170223;28;20491;-52
2021/05/30 11:16:11;;;;;;;0.00;0.00;;;19.70;70.50;;;;;;4170999;28;20510;-52
2021/05/30 11:18:33;;;;;;;0.00;0.00;;;19.70;70.40;;;;;;4161104;28;20570;-48
2021/05/30 11:20:56;;;;;;;0.00;0.00;;;19.80;70.40;;;;;;4173875;28;20053;-54
2021/05/30 11:23:21;;;;;;;1.13;1.08;;;19.80;70.30;;;;;;4167380;28;20132;-53
2021/05/30 11:25:48;;;;;;;0.00;0.00;;;19.80;71.10;;;;;;4162430;28;20431;-54
2021/05/30 11:28:12;;;;;;;0.47;0.47;;;19.80;70.10;;;;;;4158944;28;20056;-53
2021/05/30 11:30:55;;;;;;;0.00;0.00;;;19.80;70.10;;;;;;4161676;28;20059;-53
2021/05/30 11:33:29;;;;;;;0.00;0.00;;;19.80;70.00;;;;;;4159799;28;20454;-53
2021/05/30 11:35:54;;;;;;;0.00;0.00;;;19.90;69.90;;;;;;4157298;28;20095;-58
2021/05/30 11:38:17;;;;;;;0.15;0.05;;;19.90;69.80;;;;;;4156355;28;20482;-55
2021/05/30 11:40:40;;;;;;;0.55;0.55;;;19.90;69.70;;;;;;4158056;28;20045;-55
2021/05/30 11:43:15;;;;;;;0.03;0.03;;;19.90;69.60;;;;;;4163308;28;20534;-55
2021/05/30 11:45:40;;;;;;;0.00;0.00;;;20.00;69.60;;;;;;4171584;28;20565;-54
2021/05/30 11:48:04;;;;;;;1.17;1.17;;;20.00;69.60;;;;;;4155927;28;20050;-53
2021/05/30 11:50:30;;;;;;;0.45;0.45;;;20.00;69.60;;;;;;4162131;28;20518;-51
2021/05/30 11:52:52;;;;;;;0.25;0.25;;;20.00;69.60;;;;;;4174164;28;20057;-53
2021/05/30 11:55:16;;;;;;;0.85;0.85;;;20.00;69.60;;;;;;4174442;28;20495;-52
2021/05/30 11:57:38;;;;;;;0.75;0.22;;;20.00;69.50;;;;;;4173480;28;20056;-53
2021/05/30 12:00:04;;;;;;;1.77;0.47;;;20.00;69.40;;;;;;4175599;28;20066;-54
2021/05/30 12:02:37;;;;;;;0.00;0.00;;;20.00;69.40;;;;;;4174874;28;20126;-54
2021/05/30 12:05:00;;;;;;;0.30;0.30;;;20.00;69.30;;;;;;4175529;28;20053;-53
2021/05/30 12:07:21;;;;;;;0.10;0.10;;;20.00;69.30;;;;;;4178098;28;20055;-54
2021/05/30 12:09:52;;;;;;;1.55;1.45;;;20.00;69.30;;;;;;4168109;28;20130;-52
2021/05/30 12:12:32;;;;;;;0.52;0.45;;;20.00;69.10;;;;;;4167992;28;20049;-55
2021/05/30 12:15:04;;;;;;;0.40;0.40;;;20.10;69.20;;;;;;4158609;28;20076;-51
2021/05/30 12:17:25;;;;;;;0.38;0.30;;;20.00;69.10;;;;;;4173499;28;20132;-53
2021/05/30 12:19:47;;;;;;;0.75;0.75;;;20.10;69.10;;;;;;4156177;28;20153;-48
2021/05/30 12:22:10;;;;;;;0.00;0.00;;;20.10;69.10;;;;;;4160344;28;20387;-55
2021/05/30 12:24:36;;;;;;;3.55;2.30;;;20.10;69.20;;;;;;4161371;28;20045;-54
2021/05/30 12:26:59;;;;;;;0.40;0.40;;;20.10;69.00;;;;;;4158236;28;20177;-52
2021/05/30 12:29:22;;;;;;;0.10;0.10;;;20.10;68.90;;;;;;4161352;28;20045;-50